Monument, Colorado
Current Conditions -  °F | °C
As of 12:58 PM on Sunday 21 Dec 2014 (Local Time) from KAFF Reporting Station
Few Clouds Few Clouds  
Wind Chill: 40°   Ceiling: Unl
Heat Index: 47°   Visibility: 10mi
Dew Point: 18°   Wind: 18mph
Humidity: 32%   Direction: 300°WNW
Pressure: 29.63"   Gusts: 22mph
Location:  39.09°N, 104.87°W
Report Text: KAFF 211958Z AUTO 30016G19KT 10SM FEW190 08/M08 A2963 RMK AO2 PK WND 26031/09 SLP029 T00831078
Loading
Personal Weather Stations






























Interactive Weather Map New forecast layout! Learn more

10-Day Weather Forecast

Advertisements
Track Severe Weather on mobile